Terminal Aerodrome Forecast
Issued by NWS Sterling, VA

Current Version | Previous Version | Graphics & Text | Print | Product List | Glossary On
Versions: 1 2 3 4 5 6 7 8 9 10 11 12 13 14 15 16 17 18 19 20 21 22 23
616
FTUS41 KLWX 090535
TAFIAD
TAF
KIAD 090535Z 0906/1012 VRB03KT P6SM OVC070
     FM090900 00000KT 5SM -SN OVC030
     FM091200 VRB03KT 1SM -SN OVC008
     FM091800 03004KT 3SM -SN OVC015
     FM092100 32004KT P6SM OVC035=

USA.gov is the U.S. government's official web portal to all federal, state and local government web resources and services.